createdAt,value
2019-04-16T00:00:24.537Z,7.30
2019-04-16T00:02:54.878Z,7.40
2019-04-16T00:05:37.031Z,7.40
2019-04-16T00:08:26.486Z,7.30
2019-04-16T00:11:03.874Z,7.40
2019-04-16T00:13:36.515Z,7.30
2019-04-16T00:16:13.616Z,7.30
2019-04-16T00:18:56.375Z,7.30
2019-04-16T00:21:45.711Z,7.30
2019-04-16T00:24:20.180Z,7.30
2019-04-16T00:26:57.979Z,7.30
2019-04-16T00:29:24.559Z,7.30
2019-04-16T00:32:07.926Z,7.30
2019-04-16T00:34:35.336Z,7.30
2019-04-16T00:37:03.816Z,7.30
2019-04-16T00:39:31.959Z,7.30
2019-04-16T00:42:18.314Z,7.30
2019-04-16T00:44:49.604Z,7.30
2019-04-16T00:47:18.001Z,7.30
2019-04-16T00:49:46.156Z,7.30
2019-04-16T00:52:14.467Z,7.30
2019-04-16T00:54:43.227Z,7.20
2019-04-16T00:57:12.534Z,7.20
2019-04-16T00:59:41.010Z,7.20
2019-04-16T01:02:09.397Z,7.30
2019-04-16T01:04:37.902Z,7.20
2019-04-16T01:07:06.476Z,7.20
2019-04-16T01:10:07.812Z,7.20
2019-04-16T01:12:36.611Z,7.20
2019-04-16T01:15:05.199Z,7.10
2019-04-16T01:17:36.064Z,7.20
2019-04-16T01:20:11.647Z,7.20
2019-04-16T01:22:37.419Z,7.20
2019-04-16T01:25:05.868Z,7.10
2019-04-16T01:27:38.400Z,7.10
2019-04-16T01:30:11.130Z,7.10
2019-04-16T01:32:57.589Z,7.20
2019-04-16T01:35:37.788Z,7.20
2019-04-16T01:38:27.699Z,7.10
2019-04-16T01:41:02.924Z,7.10
2019-04-16T01:43:32.695Z,7.10
2019-04-16T01:46:04.659Z,7.20
2019-04-16T01:48:33.160Z,7.10
2019-04-16T01:51:01.656Z,7.20
2019-04-16T01:53:31.946Z,7.10
2019-04-16T01:56:03.825Z,7.10
2019-04-16T01:58:33.912Z,7.10
2019-04-16T02:01:55.419Z,7.10
2019-04-16T02:04:51.826Z,7.20
2019-04-16T02:07:18.027Z,7.20
2019-04-16T02:09:49.397Z,7.20
2019-04-16T02:12:20.245Z,7.10
2019-04-16T02:14:50.454Z,7.10
2019-04-16T02:17:18.648Z,7.10
2019-04-16T02:20:07.670Z,7.20
2019-04-16T02:22:37.407Z,7.20
2019-04-16T02:25:06.410Z,7.10
2019-04-16T02:27:36.498Z,7.10
2019-04-16T02:30:07.440Z,7.10
2019-04-16T02:32:36.168Z,7.20
2019-04-16T02:35:40.559Z,7.20
2019-04-16T02:38:15.914Z,7.10
2019-04-16T02:40:52.996Z,7.00
2019-04-16T02:44:14.250Z,7.00
2019-04-16T02:46:38.860Z,7.00
2019-04-16T02:49:06.961Z,7.00
2019-04-16T02:51:43.850Z,7.00
2019-04-16T02:54:34.030Z,7.10
2019-04-16T02:57:26.048Z,7.00
2019-04-16T02:59:50.739Z,6.90
2019-04-16T03:02:41.553Z,6.90
2019-04-16T03:05:29.782Z,6.90
2019-04-16T03:07:58.293Z,6.80
2019-04-16T03:10:26.324Z,6.70
2019-04-16T03:12:55.199Z,6.70
2019-04-16T03:15:45.596Z,6.60
2019-04-16T03:18:17.064Z,6.60
2019-04-16T03:20:45.058Z,6.60
2019-04-16T03:23:13.316Z,6.50
2019-04-16T03:25:44.105Z,6.50
2019-04-16T03:28:11.396Z,6.50
2019-04-16T03:30:42.869Z,6.60
2019-04-16T03:33:14.309Z,6.50
2019-04-16T03:35:41.384Z,6.60
2019-04-16T03:38:09.642Z,6.70
2019-04-16T03:40:37.794Z,6.70
2019-04-16T03:43:06.393Z,6.70
2019-04-16T03:45:34.552Z,6.70
2019-04-16T03:48:15.533Z,6.70
2019-04-16T03:50:45.980Z,6.80
2019-04-16T03:53:21.637Z,6.70
2019-04-16T03:55:54.572Z,6.70
2019-04-16T03:58:24.333Z,6.70
2019-04-16T04:00:52.650Z,6.70
2019-04-16T04:03:57.665Z,6.70
2019-04-16T04:06:26.761Z,6.70
2019-04-16T04:08:55.120Z,6.70
2019-04-16T04:11:23.452Z,6.70
2019-04-16T04:13:51.581Z,6.70
2019-04-16T04:16:19.754Z,6.70
2019-04-16T04:18:47.985Z,6.70
2019-04-16T04:21:21.171Z,6.70
2019-04-16T04:23:46.589Z,6.60
2019-04-16T04:26:15.127Z,6.50
2019-04-16T04:28:43.492Z,6.50
2019-04-16T04:31:11.867Z,6.40
2019-04-16T04:33:42.801Z,6.50
2019-04-16T04:36:10.821Z,6.40
2019-04-16T04:38:39.361Z,6.40
2019-04-16T04:41:08.061Z,6.40
2019-04-16T04:43:36.463Z,6.40
2019-04-16T04:46:04.713Z,6.40
2019-04-16T04:48:36.990Z,6.40
2019-04-16T04:51:08.244Z,6.40
2019-04-16T04:53:34.848Z,6.30
2019-04-16T04:56:02.938Z,6.30
2019-04-16T04:58:33.750Z,6.40
2019-04-16T05:01:00.986Z,6.40
2019-04-16T05:03:48.175Z,6.40
2019-04-16T05:06:19.691Z,6.40
2019-04-16T05:08:48.428Z,6.50
2019-04-16T05:11:17.060Z,6.50
2019-04-16T05:13:45.657Z,6.50
2019-04-16T05:16:22.800Z,6.50
2019-04-16T05:18:52.464Z,6.50
2019-04-16T05:21:25.994Z,6.60
2019-04-16T05:23:58.279Z,6.60
2019-04-16T05:26:29.222Z,6.60
2019-04-16T05:29:16.328Z,6.60
2019-04-16T05:31:42.639Z,6.60
2019-04-16T05:34:11.035Z,6.60
2019-04-16T05:36:40.285Z,6.60
2019-04-16T05:39:08.953Z,6.50
2019-04-16T05:41:38.175Z,6.50
2019-04-16T05:44:06.382Z,6.50
2019-04-16T05:46:34.512Z,6.50
2019-04-16T05:49:02.475Z,6.50
2019-04-16T05:51:31.486Z,6.50
2019-04-16T05:54:08.424Z,6.50
2019-04-16T05:56:56.828Z,6.50
2019-04-16T05:59:24.788Z,6.60
2019-04-16T06:01:59.497Z,6.60
2019-04-16T06:04:27.495Z,6.60
2019-04-16T06:06:55.476Z,6.60
2019-04-16T06:09:23.559Z,6.60
2019-04-16T06:11:51.571Z,6.60
2019-04-16T06:14:42.839Z,6.70
2019-04-16T06:17:32.904Z,6.70
2019-04-16T06:20:19.050Z,6.80
2019-04-16T06:23:02.661Z,6.90
2019-04-16T06:25:52.566Z,7.00
2019-04-16T06:28:42.562Z,7.10
2019-04-16T06:31:19.911Z,7.30
2019-04-16T06:34:23.771Z,7.50
2019-04-16T06:37:12.663Z,7.60
2019-04-16T06:39:46.206Z,7.80
2019-04-16T06:42:44.427Z,7.90
2019-04-16T06:45:37.887Z,8.00
2019-04-16T06:48:21.090Z,8.10
2019-04-16T06:51:25.879Z,8.10
2019-04-16T06:54:34.444Z,8.20
2019-04-16T07:00:22.796Z,8.40
2019-04-16T07:03:25.872Z,8.40
2019-04-16T07:06:35.892Z,8.50
2019-04-16T07:09:42.297Z,8.30
2019-04-16T07:12:38.588Z,8.40
2019-04-16T07:15:28.383Z,8.60
2019-04-16T07:17:55.776Z,8.60
2019-04-16T07:20:49.181Z,8.70
2019-04-16T07:23:34.038Z,8.70
2019-04-16T07:26:13.619Z,8.80
2019-04-16T07:28:42.853Z,9.00
2019-04-16T07:32:01.816Z,8.90
2019-04-16T07:34:39.563Z,8.90
2019-04-16T07:37:26.716Z,9.00
2019-04-16T07:40:18.817Z,9.10
2019-04-16T07:43:09.069Z,9.20
2019-04-16T07:45:50.394Z,9.20
2019-04-16T07:48:45.474Z,9.20
2019-04-16T07:51:35.780Z,9.30
2019-04-16T07:54:22.486Z,9.10
2019-04-16T07:57:08.480Z,9.30
2019-04-16T07:59:37.233Z,9.60
2019-04-16T08:02:22.425Z,9.70
2019-04-16T08:04:52.541Z,9.70
2019-04-16T08:07:23.706Z,9.80
2019-04-16T08:10:06.950Z,9.90
2019-04-16T08:12:32.419Z,10.00
2019-04-16T08:15:20.315Z,10.20
2019-04-16T08:18:03.316Z,10.40
2019-04-16T08:23:51.704Z,10.60
2019-04-16T08:26:45.741Z,10.70
2019-04-16T08:29:16.699Z,11.00
2019-04-16T08:31:50.280Z,11.10
2019-04-16T08:34:28.343Z,11.00
2019-04-16T08:37:13.966Z,10.70
2019-04-16T08:39:42.086Z,10.80
2019-04-16T08:42:24.380Z,10.90
2019-04-16T08:45:10.822Z,11.00
2019-04-16T08:47:49.275Z,11.00
2019-04-16T08:50:13.423Z,11.10
2019-04-16T08:52:43.387Z,11.20
2019-04-16T08:55:50.966Z,11.20
2019-04-16T08:58:28.584Z,11.20
2019-04-16T09:00:57.190Z,11.30
2019-04-16T09:03:41.650Z,11.30
2019-04-16T09:06:34.719Z,11.50
2019-04-16T09:09:24.785Z,11.40
2019-04-16T09:11:36.292Z,11.50
2019-04-16T09:15:09.663Z,11.50
2019-04-16T09:18:38.444Z,11.60
2019-04-16T09:20:12.023Z,11.50
2019-04-16T09:22:48.759Z,11.60
2019-04-16T09:25:42.571Z,11.60
2019-04-16T09:28:36.470Z,11.40
2019-04-16T09:32:09.052Z,11.50
2019-04-16T09:35:08.874Z,11.70
2019-04-16T09:38:13.046Z,11.70
2019-04-16T09:41:04.684Z,11.60
2019-04-16T09:43:35.529Z,11.80
2019-04-16T09:46:25.464Z,11.70
2019-04-16T09:49:11.886Z,11.60
2019-04-16T09:51:25.891Z,11.60
2019-04-16T09:53:59.945Z,11.60
2019-04-16T09:56:31.958Z,11.60
2019-04-16T09:59:59.599Z,11.60
2019-04-16T10:02:55.289Z,11.70
2019-04-16T10:05:29.602Z,11.80
2019-04-16T10:08:19.000Z,11.80
2019-04-16T10:11:06.257Z,11.90
2019-04-16T10:13:36.546Z,12.00
2019-04-16T10:16:14.397Z,11.90
2019-04-16T10:19:07.856Z,11.90
2019-04-16T10:21:55.233Z,12.00
2019-04-16T10:24:58.594Z,12.00
2019-04-16T10:27:45.845Z,11.90
2019-04-16T10:30:33.841Z,12.00
2019-04-16T10:33:33.414Z,12.10
2019-04-16T10:36:23.373Z,12.00
2019-04-16T10:39:33.153Z,12.30
2019-04-16T10:42:23.109Z,12.40
2019-04-16T10:45:16.945Z,12.20
2019-04-16T10:48:09.542Z,12.40
2019-04-16T10:50:58.291Z,12.60
2019-04-16T10:53:51.368Z,12.60
2019-04-16T10:56:45.483Z,12.60
2019-04-16T10:59:34.045Z,12.90
2019-04-16T11:02:20.196Z,12.90
2019-04-16T11:05:19.206Z,12.90
2019-04-16T11:07:45.873Z,13.40
2019-04-16T11:10:24.339Z,13.50
2019-04-16T11:13:02.342Z,13.60
2019-04-16T11:15:52.032Z,13.40
2019-04-16T11:19:31.628Z,13.50
2019-04-16T11:20:58.318Z,13.70
2019-04-16T11:23:33.260Z,13.90
2019-04-16T11:26:01.722Z,14.00
2019-04-16T11:28:45.086Z,13.80
2019-04-16T11:31:28.601Z,13.90
2019-04-16T11:34:04.309Z,13.50
2019-04-16T11:36:34.726Z,13.90
2019-04-16T11:39:11.031Z,13.90
2019-04-16T11:41:39.137Z,13.90
2019-04-16T11:44:22.402Z,14.30
2019-04-16T11:47:14.014Z,14.00
2019-04-16T11:49:58.821Z,13.90
2019-04-16T11:52:40.187Z,14.00
2019-04-16T11:58:03.095Z,14.20
2019-04-16T12:01:03.285Z,14.10
2019-04-16T12:04:16.892Z,14.00
2019-04-16T12:06:52.736Z,13.80
2019-04-16T12:09:58.027Z,13.80
2019-04-16T12:12:52.849Z,13.60
2019-04-16T12:16:17.535Z,13.80
2019-04-16T12:18:57.999Z,13.90
2019-04-16T12:21:51.721Z,14.00
2019-04-16T12:24:48.282Z,13.80
2019-04-16T12:27:48.479Z,13.80
2019-04-16T12:30:47.701Z,13.60
2019-04-16T12:33:41.946Z,13.60
2019-04-16T12:36:39.024Z,13.70
2019-04-16T12:39:12.959Z,13.90
2019-04-16T12:42:03.297Z,14.00
2019-04-16T12:44:45.789Z,14.00
2019-04-16T12:47:38.407Z,14.10
2019-04-16T12:50:22.617Z,14.30
2019-04-16T12:53:16.267Z,14.20
2019-04-16T12:56:07.794Z,14.10
2019-04-16T12:58:58.011Z,13.90
2019-04-16T13:01:40.798Z,14.00
2019-04-16T13:04:39.898Z,14.00
2019-04-16T13:07:23.604Z,14.00
2019-04-16T13:10:14.039Z,14.10
2019-04-16T13:13:20.907Z,14.10
2019-04-16T13:16:06.539Z,14.20
2019-04-16T13:18:44.191Z,14.20
2019-04-16T13:21:34.417Z,14.20
2019-04-16T13:24:32.008Z,14.40
2019-04-16T13:27:28.745Z,14.60
2019-04-16T13:30:24.127Z,14.60
2019-04-16T13:32:41.829Z,14.60
2019-04-16T13:35:01.871Z,14.60
2019-04-16T13:37:36.894Z,14.60
2019-04-16T13:40:11.344Z,14.60
2019-04-16T13:42:44.263Z,14.80
2019-04-16T13:45:43.373Z,14.70
2019-04-16T13:48:42.232Z,14.60
2019-04-16T13:51:18.676Z,14.60
2019-04-16T13:54:34.322Z,14.30
2019-04-16T13:57:15.366Z,14.20
2019-04-16T14:00:05.507Z,14.00
2019-04-16T14:03:04.178Z,14.00
2019-04-16T14:06:09.333Z,13.90
2019-04-16T14:08:16.374Z,13.90
2019-04-16T14:11:19.611Z,13.90
2019-04-16T14:13:36.182Z,14.20
2019-04-16T14:16:29.436Z,14.30
2019-04-16T14:18:40.240Z,14.50
2019-04-16T14:21:15.763Z,14.50
2019-04-16T14:23:51.708Z,14.30
2019-04-16T14:26:27.088Z,14.00
2019-04-16T14:29:06.745Z,14.20
2019-04-16T14:31:40.719Z,14.00
2019-04-16T14:34:35.938Z,14.30
2019-04-16T14:37:11.013Z,14.50
2019-04-16T14:40:05.948Z,14.70
2019-04-16T14:42:34.199Z,14.60
2019-04-16T14:45:53.427Z,14.20
2019-04-16T14:48:08.625Z,14.20
2019-04-16T14:51:03.311Z,14.30
2019-04-16T14:53:36.093Z,14.50
2019-04-16T14:56:12.757Z,14.60
2019-04-16T14:59:00.984Z,14.50
2019-04-16T15:01:40.272Z,14.70
2019-04-16T15:04:43.206Z,14.30
2019-04-16T15:07:44.077Z,14.30
2019-04-16T15:10:50.320Z,14.40
2019-04-16T15:13:37.021Z,14.60
2019-04-16T15:16:30.682Z,14.50
2019-04-16T15:19:26.051Z,14.50
2019-04-16T15:22:14.424Z,14.60
2019-04-16T15:28:26.364Z,14.70
2019-04-16T15:31:15.061Z,14.60
2019-04-16T15:36:34.241Z,14.60
2019-04-16T15:39:29.554Z,14.60
2019-04-16T15:42:33.429Z,14.70
2019-04-16T15:45:47.342Z,14.80
2019-04-16T15:48:35.761Z,14.90
2019-04-16T15:51:15.572Z,14.90
2019-04-16T15:54:01.608Z,14.70
2019-04-16T15:56:40.516Z,14.80
2019-04-16T15:59:30.991Z,14.90
2019-04-16T16:02:38.660Z,14.90
2019-04-16T16:05:57.482Z,15.00
2019-04-16T16:08:39.046Z,15.10
2019-04-16T16:11:28.250Z,15.20
2019-04-16T16:14:00.674Z,15.10
2019-04-16T16:16:42.124Z,14.90
2019-04-16T16:19:32.110Z,15.00
2019-04-16T16:21:55.084Z,15.00
2019-04-16T16:24:26.053Z,15.10
2019-04-16T16:26:54.221Z,15.00
2019-04-16T16:29:31.142Z,15.00
2019-04-16T16:32:07.099Z,14.90
2019-04-16T16:34:38.233Z,14.90
2019-04-16T16:37:20.710Z,14.80
2019-04-16T16:39:51.873Z,14.70
2019-04-16T16:42:23.286Z,14.60
2019-04-16T16:44:55.098Z,14.60
2019-04-16T16:47:50.319Z,14.50
2019-04-16T16:50:51.591Z,14.50
2019-04-16T16:53:37.569Z,14.50
2019-04-16T16:56:24.196Z,14.40
2019-04-16T16:59:18.959Z,14.40
2019-04-16T17:02:11.347Z,14.30
2019-04-16T17:04:47.811Z,14.10
2019-04-16T17:07:18.100Z,14.00
2019-04-16T17:10:05.472Z,14.00
2019-04-16T17:12:33.993Z,13.90
2019-04-16T17:15:09.448Z,13.80
2019-04-16T17:17:55.735Z,13.80
2019-04-16T17:20:51.170Z,13.80
2019-04-16T17:23:25.469Z,13.70
2019-04-16T17:26:00.822Z,13.60
2019-04-16T17:28:32.655Z,13.60
2019-04-16T17:31:01.056Z,13.50
2019-04-16T17:33:31.725Z,13.50
2019-04-16T17:36:19.230Z,13.50
2019-04-16T17:39:00.366Z,13.40
2019-04-16T17:41:44.435Z,13.40
2019-04-16T17:44:40.676Z,13.40
2019-04-16T17:47:38.758Z,13.30
2019-04-16T17:51:21.944Z,13.30
2019-04-16T17:52:48.852Z,13.20
2019-04-16T17:55:47.718Z,13.30
2019-04-16T17:58:59.058Z,13.20
2019-04-16T18:02:04.517Z,13.30
2019-04-16T18:05:04.800Z,13.20
2019-04-16T18:07:58.497Z,13.20
2019-04-16T18:12:40.898Z,13.10
2019-04-16T18:13:46.577Z,13.10
2019-04-16T18:16:45.287Z,13.10
2019-04-16T18:19:36.941Z,13.00
2019-04-16T18:22:41.909Z,12.90
2019-04-16T18:25:34.491Z,12.90
2019-04-16T18:28:10.501Z,12.90
2019-04-16T18:31:07.143Z,12.80
2019-04-16T18:34:21.487Z,12.70
2019-04-16T18:57:31.700Z,12.40
2019-04-16T19:00:02.560Z,12.30
2019-04-16T19:00:42.216Z,12.70
2019-04-16T19:02:41.931Z,12.30
2019-04-16T19:05:16.844Z,12.20
2019-04-16T19:07:45.847Z,12.20
2019-04-16T19:10:26.571Z,12.10
2019-04-16T19:12:58.695Z,12.10
2019-04-16T19:15:23.164Z,12.00
2019-04-16T19:18:18.131Z,12.00
2019-04-16T19:20:42.560Z,12.00
2019-04-16T19:23:14.096Z,12.00
2019-04-16T19:25:51.739Z,12.00
2019-04-16T19:28:27.895Z,11.90
2019-04-16T19:31:01.467Z,11.90
2019-04-16T19:33:38.109Z,11.90
2019-04-16T19:36:14.921Z,11.90
2019-04-16T19:38:40.871Z,11.90
2019-04-16T19:41:11.036Z,11.90
2019-04-16T19:43:56.367Z,11.80
2019-04-16T19:46:25.392Z,11.80
2019-04-16T19:48:56.698Z,11.70
2019-04-16T19:51:44.878Z,11.80
2019-04-16T19:54:26.033Z,11.70
2019-04-16T19:57:03.981Z,11.70
2019-04-16T20:02:34.042Z,11.60
2019-04-16T20:05:18.298Z,11.60
2019-04-16T20:07:35.579Z,11.50
2019-04-16T20:10:12.469Z,11.40
2019-04-16T20:13:06.640Z,11.40
2019-04-16T20:15:54.900Z,11.40
2019-04-16T20:18:49.792Z,11.30
2019-04-16T20:21:19.498Z,11.30
2019-04-16T20:23:57.580Z,11.30
2019-04-16T20:26:29.289Z,11.20
2019-04-16T20:29:07.393Z,11.10
2019-04-16T20:31:50.288Z,11.10
2019-04-16T20:34:35.159Z,11.10
2019-04-16T20:36:55.838Z,11.10
2019-04-16T20:39:27.112Z,11.10
2019-04-16T20:42:06.947Z,11.10
2019-04-16T20:44:37.042Z,11.10
2019-04-16T20:47:15.507Z,11.00
2019-04-16T20:49:49.208Z,10.90
2019-04-16T20:52:21.984Z,10.90
2019-04-16T20:54:54.454Z,11.00
2019-04-16T20:57:32.373Z,11.00
2019-04-16T21:00:14.262Z,11.00
2019-04-16T21:02:42.860Z,10.90
2019-04-16T21:05:22.281Z,10.90
2019-04-16T21:07:51.549Z,10.90
2019-04-16T21:10:27.801Z,10.80
2019-04-16T21:13:00.121Z,10.90
2019-04-16T21:15:35.557Z,10.80
2019-04-16T21:18:04.786Z,10.90
2019-04-16T21:20:35.505Z,10.80
2019-04-16T21:23:17.822Z,10.80
2019-04-16T21:26:08.287Z,10.60
2019-04-16T21:29:01.367Z,10.60
2019-04-16T21:31:34.451Z,10.50
2019-04-16T21:34:24.247Z,10.50
2019-04-16T21:37:20.967Z,10.50
2019-04-16T21:40:04.871Z,10.40
2019-04-16T21:42:42.222Z,10.50
2019-04-16T21:45:16.353Z,10.40
2019-04-16T21:47:45.074Z,10.30
2019-04-16T21:50:20.813Z,10.40
2019-04-16T21:52:54.977Z,10.30
2019-04-16T21:55:24.440Z,10.40
2019-04-16T21:57:55.715Z,10.50
2019-04-16T22:01:16.387Z,10.60
2019-04-16T22:03:35.584Z,10.50
2019-04-16T22:06:11.996Z,10.40
2019-04-16T22:08:43.207Z,10.40
2019-04-16T22:11:23.894Z,10.30
2019-04-16T22:14:08.807Z,10.20
2019-04-16T22:16:41.429Z,10.20
2019-04-16T22:19:15.322Z,10.30
2019-04-16T22:21:44.418Z,10.30
2019-04-16T22:24:23.799Z,10.20
2019-04-16T22:26:49.544Z,10.10
2019-04-16T22:29:24.499Z,10.10
2019-04-16T22:32:00.541Z,10.10
2019-04-16T22:34:40.024Z,10.10
2019-04-16T22:37:12.112Z,10.10
2019-04-16T22:40:04.220Z,10.10
2019-04-16T22:42:51.030Z,10.20
2019-04-16T22:45:31.100Z,10.20
2019-04-16T22:48:02.609Z,10.20
2019-04-16T22:50:38.017Z,10.20
2019-04-16T22:53:16.995Z,10.10
2019-04-16T22:55:46.220Z,10.10
2019-04-16T22:58:27.907Z,10.20
2019-04-16T23:01:14.833Z,10.10
2019-04-16T23:03:49.728Z,10.10
2019-04-16T23:06:25.698Z,10.10
2019-04-16T23:08:54.330Z,10.00
2019-04-16T23:11:28.899Z,10.00
2019-04-16T23:13:57.497Z,10.00
2019-04-16T23:16:27.438Z,10.00
2019-04-16T23:19:04.275Z,9.90
2019-04-16T23:21:42.340Z,9.80
2019-04-16T23:24:09.847Z,9.80
2019-04-16T23:26:47.508Z,9.90
2019-04-16T23:29:28.022Z,9.80
2019-04-16T23:31:58.370Z,9.80
2019-04-16T23:34:29.695Z,9.80
2019-04-16T23:37:08.817Z,9.80
2019-04-16T23:39:57.787Z,9.70
2019-04-16T23:42:38.450Z,9.70
2019-04-16T23:45:31.388Z,9.60
2019-04-16T23:48:28.460Z,9.60
2019-04-16T23:51:07.170Z,9.60
2019-04-16T23:53:49.021Z,9.60
2019-04-16T23:56:30.773Z,9.60
2019-04-16T23:59:23.817Z,9.60
